createdAt,value
2018-12-31T00:00:01.894Z,4.97
2018-12-31T00:01:01.906Z,4.96
2018-12-31T00:02:01.921Z,4.94
2018-12-31T00:03:01.933Z,4.99
2018-12-31T00:04:01.945Z,4.99
2018-12-31T00:05:01.960Z,5.02
2018-12-31T00:06:01.985Z,4.96
2018-12-31T00:07:01.989Z,5.02
2018-12-31T00:08:02.007Z,4.97
2018-12-31T00:09:16.811Z,5.1
2018-12-31T00:10:02.034Z,5.1
2018-12-31T00:11:02.050Z,5.07
2018-12-31T00:12:02.065Z,5.13
2018-12-31T00:13:02.083Z,5.09
2018-12-31T00:14:02.094Z,5.13
2018-12-31T00:15:02.113Z,5.2
2018-12-31T00:16:02.124Z,5.15
2018-12-31T00:17:02.139Z,5.12
2018-12-31T00:18:02.155Z,5.13
2018-12-31T00:19:02.170Z,5.07
2018-12-31T00:20:16.845Z,5.1
2018-12-31T00:21:02.194Z,5.07
2018-12-31T00:22:16.873Z,5.2
2018-12-31T00:23:02.225Z,5.13
2018-12-31T00:24:17.020Z,5.12
2018-12-31T00:25:02.260Z,5.22
2018-12-31T00:26:02.268Z,5.17
2018-12-31T00:27:02.041Z,5.2
2018-12-31T00:28:02.301Z,5.15
2018-12-31T00:29:02.314Z,5.18
2018-12-31T00:31:02.344Z,5.1
2018-12-31T00:32:02.359Z,5.1
2018-12-31T00:33:02.374Z,5.06
2018-12-31T00:35:17.065Z,5.06
2018-12-31T00:36:02.420Z,5.07
2018-12-31T00:37:02.433Z,5.03
2018-12-31T00:38:02.445Z,5.06
2018-12-31T00:39:02.457Z,5.07
2018-12-31T00:40:02.629Z,5.13
2018-12-31T00:41:02.493Z,5.12
2018-12-31T00:42:02.504Z,5.09
2018-12-31T00:43:04.000Z,5.06
2018-12-31T00:44:02.535Z,5.07
2018-12-31T00:45:02.627Z,4.99
2018-12-31T00:46:02.562Z,5.03
2018-12-31T00:48:02.591Z,5.09
2018-12-31T00:49:17.271Z,5.07
2018-12-31T00:50:02.623Z,5.12
2018-12-31T00:51:02.657Z,5.15
2018-12-31T00:52:02.650Z,5.21
2018-12-31T00:53:17.325Z,5.15
2018-12-31T00:54:17.340Z,5.18
2018-12-31T00:55:17.354Z,5.1
2018-12-31T00:56:17.370Z,5.15
2018-12-31T00:57:02.728Z,5.12
2018-12-31T00:58:02.739Z,5.06
2018-12-31T00:59:02.755Z,5.12
2018-12-31T01:00:02.768Z,5.02
2018-12-31T01:01:02.787Z,5.18
2018-12-31T01:02:02.807Z,5.15
2018-12-31T01:03:02.570Z,5.2
2018-12-31T01:04:02.827Z,5.17
2018-12-31T01:05:02.840Z,5.15
2018-12-31T01:06:02.855Z,5.13
2018-12-31T01:07:02.868Z,5.2
2018-12-31T01:08:17.547Z,5.22
2018-12-31T01:09:17.561Z,5.2
2018-12-31T01:10:02.913Z,5.17
2018-12-31T01:11:02.930Z,5.25
2018-12-31T01:12:17.604Z,5.25
2018-12-31T01:13:02.967Z,5.21
2018-12-31T01:14:02.977Z,5.25
2018-12-31T01:15:02.990Z,5.27
2018-12-31T01:16:03.000Z,5.28
2018-12-31T01:17:03.037Z,5.18
2018-12-31T01:18:03.038Z,5.2
2018-12-31T01:20:03.062Z,5.18
2018-12-31T01:21:03.083Z,5.2
2018-12-31T01:22:03.090Z,5.33
2018-12-31T01:23:03.109Z,5.24
2018-12-31T01:24:03.119Z,5.33
2018-12-31T01:25:03.133Z,5.27
2018-12-31T01:26:03.147Z,5.13
2018-12-31T01:27:03.163Z,5.24
2018-12-31T01:28:17.842Z,5.31
2018-12-31T01:29:03.191Z,5.21
2018-12-31T01:30:03.205Z,5.22
2018-12-31T01:31:03.224Z,5.3
2018-12-31T01:32:03.237Z,5.31
2018-12-31T01:33:03.248Z,5.21
2018-12-31T01:35:17.963Z,5.27
2018-12-31T01:36:03.293Z,5.28
2018-12-31T01:38:03.325Z,5.27
2018-12-31T01:39:03.338Z,5.28
2018-12-31T01:40:03.353Z,5.17
2018-12-31T01:41:18.031Z,5.12
2018-12-31T01:42:03.385Z,5.24
2018-12-31T01:43:03.396Z,5.21
2018-12-31T01:44:18.077Z,5.22
2018-12-31T01:45:03.429Z,5.33
2018-12-31T01:46:03.445Z,5.25
2018-12-31T01:47:03.456Z,5.3
2018-12-31T01:48:03.470Z,5.39
2018-12-31T01:49:03.483Z,5.35
2018-12-31T01:50:03.499Z,5.38
2018-12-31T01:51:11.066Z,5.28
2018-12-31T01:52:03.527Z,5.27
2018-12-31T01:53:03.549Z,5.35
2018-12-31T01:54:03.607Z,5.33
2018-12-31T01:55:03.572Z,5.36
2018-12-31T01:56:03.609Z,5.33
2018-12-31T01:57:03.602Z,5.27
2018-12-31T01:58:03.620Z,5.24
2018-12-31T01:59:18.295Z,5.22
2018-12-31T02:01:03.664Z,5.25
2018-12-31T02:02:03.679Z,5.28
2018-12-31T02:03:03.695Z,5.36
2018-12-31T02:04:03.712Z,5.39
2018-12-31T02:05:03.718Z,5.4
2018-12-31T02:06:03.733Z,5.36
2018-12-31T02:07:03.752Z,5.28
2018-12-31T02:08:03.768Z,5.33
2018-12-31T02:09:03.781Z,5.2
2018-12-31T02:10:03.794Z,5.24
2018-12-31T02:11:03.812Z,5.25
2018-12-31T02:12:03.825Z,5.25
2018-12-31T02:13:03.837Z,5.27
2018-12-31T02:14:03.855Z,5.33
2018-12-31T02:15:03.871Z,5.33
2018-12-31T02:16:03.895Z,5.33
2018-12-31T02:17:03.894Z,5.33
2018-12-31T02:18:03.913Z,5.4
2018-12-31T02:19:03.927Z,5.25
2018-12-31T02:20:03.946Z,5.33
2018-12-31T02:21:04.053Z,5.4
2018-12-31T02:22:03.969Z,5.38
2018-12-31T02:23:03.983Z,5.36
2018-12-31T02:24:04.005Z,5.36
2018-12-31T02:25:04.018Z,5.25
2018-12-31T02:26:04.035Z,5.33
2018-12-31T02:27:04.047Z,5.24
2018-12-31T02:28:04.134Z,5.28
2018-12-31T02:29:04.072Z,5.35
2018-12-31T02:30:04.116Z,5.3
2018-12-31T02:31:18.770Z,5.3
2018-12-31T02:32:04.119Z,5.25
2018-12-31T02:33:04.137Z,5.27
2018-12-31T02:34:04.145Z,5.28
2018-12-31T02:36:04.177Z,5.3
2018-12-31T02:37:04.192Z,5.31
2018-12-31T02:38:04.205Z,5.38
2018-12-31T02:39:04.223Z,5.38
2018-12-31T02:40:04.237Z,5.35
2018-12-31T02:41:18.927Z,5.4
2018-12-31T02:42:04.267Z,5.3
2018-12-31T02:43:18.941Z,5.39
2018-12-31T02:44:04.293Z,5.42
2018-12-31T02:45:04.308Z,5.4
2018-12-31T02:46:04.325Z,5.43
2018-12-31T02:47:19.003Z,5.27
2018-12-31T02:48:04.354Z,5.36
2018-12-31T02:49:04.444Z,5.43
2018-12-31T02:50:04.392Z,5.43
2018-12-31T02:51:04.413Z,5.43
2018-12-31T02:52:04.412Z,5.4
2018-12-31T02:53:04.428Z,5.48
2018-12-31T02:54:04.443Z,5.42
2018-12-31T02:55:04.491Z,5.36
2018-12-31T02:56:04.472Z,5.43
2018-12-31T02:57:04.491Z,5.38
2018-12-31T02:58:04.501Z,5.42
2018-12-31T02:59:04.530Z,5.51
2018-12-31T03:00:04.539Z,5.43
2018-12-31T03:01:04.543Z,5.51
2018-12-31T03:02:04.569Z,5.51
2018-12-31T03:03:19.235Z,5.53
2018-12-31T03:04:04.585Z,5.54
2018-12-31T03:05:04.607Z,5.46
2018-12-31T03:06:04.621Z,5.48
2018-12-31T03:07:04.641Z,5.38
2018-12-31T03:08:04.653Z,5.46
2018-12-31T03:09:04.670Z,5.43
2018-12-31T03:10:04.685Z,5.49
2018-12-31T03:11:04.702Z,5.6
2018-12-31T03:12:04.704Z,5.53
2018-12-31T03:13:04.721Z,5.57
2018-12-31T03:14:04.737Z,5.51
2018-12-31T03:15:19.413Z,5.54
2018-12-31T03:16:04.767Z,5.49
2018-12-31T03:17:04.784Z,5.54
2018-12-31T03:19:19.472Z,5.48
2018-12-31T03:20:19.577Z,5.53
2018-12-31T03:21:04.855Z,5.54
2018-12-31T03:23:04.878Z,5.48
2018-12-31T03:24:04.884Z,5.4
2018-12-31T03:25:05.005Z,5.49
2018-12-31T03:26:04.910Z,5.48
2018-12-31T03:30:05.076Z,5.49
2018-12-31T03:31:04.996Z,5.56
2018-12-31T03:32:05.025Z,5.57
2018-12-31T03:34:19.714Z,5.6
2018-12-31T03:35:05.051Z,5.67
2018-12-31T03:36:05.064Z,5.65
2018-12-31T03:37:05.080Z,5.6
2018-12-31T03:38:05.089Z,5.61
2018-12-31T03:39:05.172Z,5.51
2018-12-31T03:40:05.122Z,5.49
2018-12-31T03:41:05.134Z,5.53
2018-12-31T03:44:19.843Z,5.63
2018-12-31T03:45:05.201Z,5.65
2018-12-31T03:46:19.871Z,5.63
2018-12-31T03:47:05.221Z,5.6
2018-12-31T03:48:05.241Z,5.61
2018-12-31T03:49:05.252Z,5.64
2018-12-31T03:50:05.276Z,5.57
2018-12-31T03:51:05.299Z,5.54
2018-12-31T03:52:05.297Z,5.6
2018-12-31T03:53:05.323Z,5.54
2018-12-31T03:54:05.326Z,5.54
2018-12-31T03:55:05.343Z,5.49
2018-12-31T03:56:05.361Z,5.49
2018-12-31T03:58:05.397Z,5.61
2018-12-31T03:59:05.403Z,5.54
2018-12-31T04:00:05.420Z,5.65
2018-12-31T04:01:05.430Z,5.65
2018-12-31T04:02:05.448Z,5.65
2018-12-31T04:03:05.462Z,5.67
2018-12-31T04:04:05.472Z,5.72
2018-12-31T04:05:05.496Z,5.64
2018-12-31T04:06:20.166Z,5.57
2018-12-31T04:07:05.534Z,5.61
2018-12-31T04:08:05.549Z,5.68
2018-12-31T04:09:05.551Z,5.65
2018-12-31T04:10:05.331Z,5.68
2018-12-31T04:11:05.579Z,5.65
2018-12-31T04:12:05.593Z,5.63
2018-12-31T04:13:05.607Z,5.57
2018-12-31T04:15:05.644Z,5.65
2018-12-31T04:16:20.317Z,5.61
2018-12-31T04:17:05.685Z,5.64
2018-12-31T04:18:20.346Z,5.63
2018-12-31T04:19:05.776Z,5.61
2018-12-31T04:20:05.711Z,5.54
2018-12-31T04:21:05.732Z,5.49
2018-12-31T04:22:20.402Z,5.46
2018-12-31T04:23:05.763Z,5.57
2018-12-31T04:25:05.797Z,5.57
2018-12-31T04:26:20.470Z,5.51
2018-12-31T04:27:05.824Z,5.58
2018-12-31T04:28:05.828Z,5.57
2018-12-31T04:29:05.844Z,5.46
2018-12-31T04:30:20.527Z,5.46
2018-12-31T04:31:05.900Z,5.53
2018-12-31T04:32:05.889Z,5.57
2018-12-31T04:33:05.902Z,5.56
2018-12-31T04:34:05.984Z,5.54
2018-12-31T04:35:05.935Z,5.56
2018-12-31T04:36:05.704Z,5.49
2018-12-31T04:37:06.001Z,5.45
2018-12-31T04:38:20.638Z,5.49
2018-12-31T04:39:05.990Z,5.58
2018-12-31T04:40:20.679Z,5.58
2018-12-31T04:41:06.022Z,5.48
2018-12-31T04:42:06.035Z,5.48
2018-12-31T04:43:06.055Z,5.48
2018-12-31T04:44:06.066Z,5.49
2018-12-31T04:45:06.080Z,5.45
2018-12-31T04:48:06.136Z,5.54
2018-12-31T04:49:06.138Z,5.56
2018-12-31T04:50:06.163Z,5.67
2018-12-31T04:51:06.168Z,5.65
2018-12-31T04:52:06.186Z,5.6
2018-12-31T04:53:06.210Z,5.54
2018-12-31T04:54:20.892Z,5.58
2018-12-31T04:55:06.249Z,5.54
2018-12-31T04:56:06.241Z,5.63
2018-12-31T04:59:06.300Z,5.46
2018-12-31T05:00:06.303Z,5.51
2018-12-31T05:01:06.318Z,5.45
2018-12-31T05:02:06.335Z,5.6
2018-12-31T05:03:06.346Z,5.6
2018-12-31T05:04:06.364Z,5.49
2018-12-31T05:05:06.443Z,5.48
2018-12-31T05:06:06.391Z,5.51
2018-12-31T05:07:06.407Z,5.57
2018-12-31T05:08:06.419Z,5.43
2018-12-31T05:09:21.099Z,5.51
2018-12-31T05:10:06.471Z,5.51
2018-12-31T05:11:06.468Z,5.64
2018-12-31T05:12:06.484Z,5.61
2018-12-31T05:13:06.499Z,5.51
2018-12-31T05:15:06.532Z,5.63
2018-12-31T05:16:06.546Z,5.56
2018-12-31T05:17:06.558Z,5.57
2018-12-31T05:18:06.590Z,5.46
2018-12-31T05:19:06.692Z,5.45
2018-12-31T05:20:06.603Z,5.54
2018-12-31T05:21:06.616Z,5.48
2018-12-31T05:22:21.290Z,5.46
2018-12-31T05:23:08.041Z,5.46
2018-12-31T05:24:06.659Z,5.46
2018-12-31T05:25:06.692Z,5.49
2018-12-31T05:26:06.689Z,5.61
2018-12-31T05:27:06.706Z,5.64
2018-12-31T05:28:06.715Z,5.54
2018-12-31T05:29:06.745Z,5.58
2018-12-31T05:30:06.750Z,5.58
2018-12-31T05:31:06.759Z,5.64
2018-12-31T05:32:06.783Z,5.67
2018-12-31T05:33:06.934Z,5.67
2018-12-31T05:35:06.825Z,5.6
2018-12-31T05:36:21.498Z,5.63
2018-12-31T05:37:06.898Z,5.61
2018-12-31T05:38:06.893Z,5.72
2018-12-31T05:40:06.894Z,5.72
2018-12-31T05:41:21.572Z,5.6
2018-12-31T05:42:06.921Z,5.51
2018-12-31T05:43:06.943Z,5.58
2018-12-31T05:44:06.954Z,5.57
2018-12-31T05:45:06.967Z,5.58
2018-12-31T05:46:06.984Z,5.63
2018-12-31T05:47:07.003Z,5.61
2018-12-31T05:48:07.053Z,5.61
2018-12-31T05:49:07.026Z,5.68
2018-12-31T05:50:07.057Z,5.68
2018-12-31T05:51:07.057Z,5.54
2018-12-31T05:52:07.071Z,5.49
2018-12-31T05:53:21.748Z,5.49
2018-12-31T05:54:07.100Z,5.53
2018-12-31T05:55:07.115Z,5.57
2018-12-31T05:56:07.130Z,5.61
2018-12-31T05:57:21.806Z,5.54
2018-12-31T05:58:07.158Z,5.64
2018-12-31T05:59:07.177Z,5.64
2018-12-31T06:00:07.197Z,5.61
2018-12-31T06:01:07.209Z,5.57
2018-12-31T06:02:07.228Z,5.61
2018-12-31T06:03:07.257Z,5.64
2018-12-31T06:04:07.274Z,5.54
2018-12-31T06:05:07.020Z,5.65
2018-12-31T06:07:07.296Z,5.6
2018-12-31T06:08:07.419Z,5.58
2018-12-31T06:09:21.985Z,5.6
2018-12-31T06:10:07.340Z,5.63
2018-12-31T06:11:07.472Z,5.75
2018-12-31T06:12:07.367Z,5.78
2018-12-31T06:13:22.044Z,5.74
2018-12-31T06:14:07.396Z,5.81
2018-12-31T06:15:07.421Z,5.72
2018-12-31T06:16:07.495Z,5.76
2018-12-31T06:17:07.700Z,5.75
2018-12-31T06:18:07.457Z,5.76
2018-12-31T06:19:07.471Z,5.72
2018-12-31T06:20:07.492Z,5.74
2018-12-31T06:22:07.519Z,5.86
2018-12-31T06:23:07.532Z,5.74
2018-12-31T06:24:07.549Z,5.79
2018-12-31T06:25:07.604Z,5.83
2018-12-31T06:26:22.238Z,5.85
2018-12-31T06:27:07.595Z,5.81
2018-12-31T06:28:07.681Z,5.76
2018-12-31T06:29:22.285Z,5.72
2018-12-31T06:30:07.637Z,5.81
2018-12-31T06:31:07.652Z,5.81
2018-12-31T06:32:07.667Z,5.89
2018-12-31T06:33:07.684Z,5.93
2018-12-31T06:34:07.693Z,5.85
2018-12-31T06:35:07.711Z,5.75
2018-12-31T06:36:07.731Z,5.81
2018-12-31T06:37:07.744Z,5.72
2018-12-31T06:38:07.756Z,5.78
2018-12-31T06:39:07.533Z,5.86
2018-12-31T06:40:07.798Z,5.89
2018-12-31T06:41:07.812Z,5.78
2018-12-31T06:42:07.817Z,5.85
2018-12-31T06:43:07.835Z,5.86
2018-12-31T06:44:22.507Z,5.82
2018-12-31T06:45:07.863Z,5.81
2018-12-31T06:46:07.874Z,5.79
2018-12-31T06:47:07.644Z,5.86
2018-12-31T06:49:07.921Z,5.82
2018-12-31T06:50:07.934Z,5.91
2018-12-31T06:51:07.949Z,5.9
2018-12-31T06:52:07.969Z,6.03
2018-12-31T06:53:07.984Z,5.94
2018-12-31T06:54:08.003Z,5.99
2018-12-31T06:55:22.676Z,5.99
2018-12-31T06:56:08.031Z,5.97
2018-12-31T06:57:08.038Z,6
2018-12-31T06:58:08.063Z,5.94
2018-12-31T06:59:08.088Z,5.96
2018-12-31T07:00:08.086Z,5.9
2018-12-31T07:01:08.100Z,5.82
2018-12-31T07:02:08.112Z,5.96
2018-12-31T07:03:08.130Z,5.83
2018-12-31T07:04:09.682Z,5.94
2018-12-31T07:05:08.165Z,5.86
2018-12-31T07:06:08.194Z,5.94
2018-12-31T07:07:08.191Z,5.97
2018-12-31T07:08:08.203Z,5.94
2018-12-31T07:09:08.218Z,6.04
2018-12-31T07:11:08.250Z,5.96
2018-12-31T07:12:08.363Z,5.93
2018-12-31T07:13:22.941Z,5.97
2018-12-31T07:14:08.299Z,5.93
2018-12-31T07:15:08.337Z,5.99
2018-12-31T07:16:22.985Z,5.97
2018-12-31T07:17:08.342Z,5.96
2018-12-31T07:18:08.353Z,5.99
2018-12-31T07:19:08.370Z,6.09
2018-12-31T07:20:08.394Z,5.99
2018-12-31T07:21:08.398Z,5.99
2018-12-31T07:22:08.416Z,6.04
2018-12-31T07:23:08.433Z,6.09
2018-12-31T07:25:23.126Z,6.12
2018-12-31T07:26:23.142Z,6.11
2018-12-31T07:27:08.493Z,6.18
2018-12-31T07:28:08.505Z,6.06
2018-12-31T07:29:23.182Z,5.99
2018-12-31T07:30:08.537Z,6.09
2018-12-31T07:31:08.550Z,6.12
2018-12-31T07:32:23.230Z,6.06
2018-12-31T07:33:08.580Z,6.12
2018-12-31T07:34:08.611Z,6.19
2018-12-31T07:35:08.623Z,6.19
2018-12-31T07:36:08.628Z,6.21
2018-12-31T07:37:08.640Z,6.17
2018-12-31T07:38:08.657Z,6.17
2018-12-31T07:39:08.672Z,6.22
2018-12-31T07:40:08.690Z,6.28
2018-12-31T07:41:08.719Z,6.28
2018-12-31T07:43:09.665Z,6.28
2018-12-31T07:44:23.412Z,6.27
2018-12-31T07:45:08.765Z,6.27
2018-12-31T07:46:08.776Z,6.36
2018-12-31T07:47:08.794Z,6.3
2018-12-31T07:48:23.475Z,6.17
2018-12-31T07:49:08.821Z,6.25
2018-12-31T07:50:08.841Z,6.25
2018-12-31T07:52:08.870Z,6.22
2018-12-31T07:53:08.883Z,6.22
2018-12-31T07:54:08.898Z,6.27
2018-12-31T07:55:08.919Z,6.34
2018-12-31T07:57:08.946Z,6.33
2018-12-31T07:59:08.983Z,6.43
2018-12-31T08:00:08.990Z,6.41
2018-12-31T08:01:09.004Z,6.38
2018-12-31T08:02:09.020Z,6.41
2018-12-31T08:03:09.036Z,6.38
2018-12-31T08:04:23.713Z,6.3
2018-12-31T08:05:09.065Z,6.48
2018-12-31T08:06:09.086Z,6.44
2018-12-31T08:07:09.096Z,6.43
2018-12-31T08:08:09.117Z,6.34
2018-12-31T08:09:09.127Z,6.46
2018-12-31T08:10:09.141Z,6.49
2018-12-31T08:11:09.157Z,6.46
2018-12-31T08:12:09.173Z,6.41
2018-12-31T08:13:23.854Z,6.52
2018-12-31T08:14:09.205Z,6.56
2018-12-31T08:15:08.972Z,6.46
2018-12-31T08:16:23.897Z,6.56
2018-12-31T08:17:09.249Z,6.59
2018-12-31T08:18:09.266Z,6.55
2018-12-31T08:19:23.944Z,6.54
2018-12-31T08:20:09.300Z,6.55
2018-12-31T08:21:09.063Z,6.61
2018-12-31T08:22:09.324Z,6.56
2018-12-31T08:23:09.345Z,6.56
2018-12-31T08:24:09.362Z,6.74
2018-12-31T08:25:09.372Z,6.66
2018-12-31T08:26:09.391Z,6.77
2018-12-31T08:27:09.403Z,6.73
2018-12-31T08:28:09.420Z,6.81
2018-12-31T08:29:09.449Z,6.8
2018-12-31T08:31:09.506Z,6.85
2018-12-31T08:32:09.480Z,6.91
2018-12-31T08:33:09.496Z,6.73
2018-12-31T08:34:09.510Z,6.8
2018-12-31T08:35:09.531Z,6.79
2018-12-31T08:36:09.543Z,6.76
2018-12-31T08:37:09.558Z,6.8
2018-12-31T08:38:09.588Z,6.73
2018-12-31T08:39:09.592Z,6.76
2018-12-31T08:40:09.605Z,6.79
2018-12-31T08:41:09.623Z,6.84
2018-12-31T08:42:24.305Z,6.88
2018-12-31T08:43:09.655Z,6.92
2018-12-31T08:44:09.672Z,6.99
2018-12-31T08:45:09.684Z,6.99
2018-12-31T08:46:24.364Z,6.88
2018-12-31T08:47:09.721Z,6.99
2018-12-31T08:48:09.804Z,6.97
2018-12-31T08:49:09.746Z,6.94
2018-12-31T08:50:09.766Z,6.81
2018-12-31T08:51:24.441Z,6.85
2018-12-31T08:52:09.792Z,6.85
2018-12-31T08:53:09.809Z,6.99
2018-12-31T08:54:09.823Z,6.97
2018-12-31T08:55:09.841Z,7.09
2018-12-31T08:56:09.868Z,7.12
2018-12-31T08:57:09.872Z,7.07
2018-12-31T08:58:09.888Z,7.13
2018-12-31T08:59:09.902Z,7.09
2018-12-31T09:00:09.923Z,7.27
2018-12-31T09:01:09.934Z,7.25
2018-12-31T09:02:09.954Z,7.34
2018-12-31T09:03:24.630Z,7.4
2018-12-31T09:04:09.986Z,7.49
2018-12-31T09:05:09.751Z,7.48
2018-12-31T09:06:10.020Z,7.39
2018-12-31T09:07:24.692Z,7.45
2018-12-31T09:08:10.046Z,7.49
2018-12-31T09:09:10.060Z,7.48
2018-12-31T09:10:10.076Z,7.42
2018-12-31T09:11:10.096Z,7.5
2018-12-31T09:13:10.136Z,7.61
2018-12-31T09:14:10.146Z,7.63
2018-12-31T09:15:10.168Z,7.61
2018-12-31T09:16:10.173Z,7.61
2018-12-31T09:17:24.856Z,7.58
2018-12-31T09:18:10.213Z,7.69
2018-12-31T09:19:10.225Z,7.69
2018-12-31T09:20:10.243Z,7.6
2018-12-31T09:21:10.258Z,7.64
2018-12-31T09:22:10.273Z,7.74
2018-12-31T09:23:24.950Z,7.64
2018-12-31T09:25:10.319Z,7.63
2018-12-31T09:26:10.094Z,7.8
2018-12-31T09:27:10.351Z,7.75
2018-12-31T09:28:10.369Z,7.77
2018-12-31T09:29:10.385Z,7.87
2018-12-31T09:30:10.407Z,7.69
2018-12-31T09:31:10.418Z,7.63
2018-12-31T09:32:10.436Z,7.77
2018-12-31T09:34:10.466Z,7.92
2018-12-31T09:35:10.481Z,7.83
2018-12-31T09:36:25.162Z,7.68
2018-12-31T09:37:10.515Z,7.6
2018-12-31T09:38:10.533Z,7.6
2018-12-31T09:39:25.232Z,7.63
2018-12-31T09:40:10.569Z,7.74
2018-12-31T09:41:10.591Z,7.67
2018-12-31T09:42:10.597Z,7.68
2018-12-31T09:43:10.616Z,7.79
2018-12-31T09:44:10.632Z,7.83
2018-12-31T09:45:10.646Z,7.74
2018-12-31T09:46:10.662Z,7.83
2018-12-31T09:47:25.348Z,7.86
2018-12-31T09:48:10.699Z,8
2018-12-31T09:49:25.380Z,8.02
2018-12-31T09:50:10.728Z,8.01
2018-12-31T09:51:10.744Z,8.08
2018-12-31T09:52:25.426Z,7.95
2018-12-31T09:53:12.531Z,7.86
2018-12-31T09:54:25.460Z,7.77
2018-12-31T09:55:10.813Z,7.97
2018-12-31T09:56:10.828Z,7.9
2018-12-31T09:57:10.844Z,8.01
2018-12-31T09:58:10.965Z,8.07
2018-12-31T09:59:10.880Z,8.07
2018-12-31T10:00:10.895Z,8.01
2018-12-31T10:01:10.918Z,8.1
2018-12-31T10:02:10.945Z,8.07
2018-12-31T10:03:10.945Z,8.04
2018-12-31T10:04:10.965Z,7.98
2018-12-31T10:05:10.978Z,8.08
2018-12-31T10:06:10.994Z,8.1
2018-12-31T10:07:11.013Z,8.02
2018-12-31T10:08:11.031Z,8.08
2018-12-31T10:09:12.016Z,8.18
2018-12-31T10:10:11.084Z,8.16
2018-12-31T10:11:11.087Z,8.23
2018-12-31T10:12:11.095Z,8.33
2018-12-31T10:13:11.113Z,8.2
2018-12-31T10:14:11.134Z,8.34
2018-12-31T10:15:11.146Z,8.19
2018-12-31T10:16:11.163Z,8.28
2018-12-31T10:17:11.178Z,8.26
2018-12-31T10:18:25.865Z,8.22
2018-12-31T10:19:11.218Z,8.34
2018-12-31T10:20:11.230Z,8.34
2018-12-31T10:21:11.253Z,8.37
2018-12-31T10:22:11.261Z,8.53
2018-12-31T10:23:25.947Z,8.55
2018-12-31T10:24:11.310Z,8.52
2018-12-31T10:25:11.313Z,8.53
2018-12-31T10:26:25.993Z,8.63
2018-12-31T10:27:11.355Z,8.37
2018-12-31T10:28:11.366Z,8.43
2018-12-31T10:29:11.382Z,8.33
2018-12-31T10:30:11.440Z,8.34
2018-12-31T10:31:11.416Z,8.43
2018-12-31T10:32:11.431Z,8.43
2018-12-31T10:33:11.450Z,8.44
2018-12-31T10:34:11.522Z,8.38
2018-12-31T10:35:11.485Z,8.37
2018-12-31T10:36:11.504Z,8.44
2018-12-31T10:38:11.534Z,8.4
2018-12-31T10:39:26.217Z,8.43
2018-12-31T10:40:11.570Z,8.33
2018-12-31T10:41:11.585Z,8.37
2018-12-31T10:42:26.266Z,8.53
2018-12-31T10:43:11.618Z,8.52
2018-12-31T10:44:11.636Z,8.4
2018-12-31T10:45:11.651Z,8.48
2018-12-31T10:46:11.670Z,8.61
2018-12-31T10:47:11.688Z,8.7
2018-12-31T10:48:11.706Z,8.73
2018-12-31T10:49:11.720Z,8.74
2018-12-31T10:50:11.787Z,8.79
2018-12-31T10:52:12.837Z,8.8
2018-12-31T10:53:11.788Z,8.77
2018-12-31T10:54:11.805Z,8.74
2018-12-31T10:55:11.824Z,8.56
2018-12-31T10:56:11.836Z,8.66
2018-12-31T10:57:11.857Z,8.61
2018-12-31T10:58:26.535Z,8.45
2018-12-31T10:59:11.897Z,8.47
2018-12-31T11:00:11.907Z,8.59
2018-12-31T11:01:11.927Z,8.62
2018-12-31T11:02:11.939Z,8.73
2018-12-31T11:03:11.960Z,8.7
2018-12-31T11:04:11.978Z,8.74
2018-12-31T11:05:11.995Z,8.68
2018-12-31T11:06:12.030Z,8.59
2018-12-31T11:07:26.693Z,8.56
2018-12-31T11:08:26.708Z,8.61
2018-12-31T11:09:12.060Z,8.58
2018-12-31T11:10:12.080Z,8.63
2018-12-31T11:11:12.099Z,8.7
2018-12-31T11:12:12.114Z,8.8
2018-12-31T11:13:12.126Z,8.83
2018-12-31T11:14:26.813Z,8.71
2018-12-31T11:15:12.251Z,8.79
2018-12-31T11:16:12.182Z,8.77
2018-12-31T11:17:12.299Z,8.77
2018-12-31T11:18:12.212Z,8.8
2018-12-31T11:19:12.231Z,8.81
2018-12-31T11:20:12.248Z,8.86
2018-12-31T11:21:12.266Z,8.96
2018-12-31T11:22:12.290Z,9.02
2018-12-31T11:25:12.334Z,9.01
2018-12-31T11:26:27.015Z,8.91
2018-12-31T11:27:27.032Z,8.87
2018-12-31T11:28:12.389Z,8.96
2018-12-31T11:29:27.073Z,8.94
2018-12-31T11:30:12.421Z,9.01
2018-12-31T11:31:12.441Z,8.96
2018-12-31T11:32:12.456Z,8.8
2018-12-31T11:33:12.474Z,8.81
2018-12-31T11:34:12.491Z,8.89
2018-12-31T11:35:12.508Z,8.84
2018-12-31T11:37:12.549Z,8.79
2018-12-31T11:38:12.558Z,8.77
2018-12-31T11:39:12.581Z,8.83
2018-12-31T11:40:12.597Z,8.98
2018-12-31T11:41:12.615Z,8.94
2018-12-31T11:42:12.635Z,8.94
2018-12-31T11:43:12.651Z,9.1
2018-12-31T11:44:12.674Z,9.13
2018-12-31T11:45:12.687Z,9.17
2018-12-31T11:46:12.700Z,9.1
2018-12-31T11:47:12.718Z,9.05
2018-12-31T11:48:12.735Z,9.02
2018-12-31T11:49:12.751Z,9.02
2018-12-31T11:50:12.771Z,9.13
2018-12-31T11:51:12.797Z,9.1
2018-12-31T11:52:12.800Z,9.14
2018-12-31T11:53:12.821Z,9.24
2018-12-31T11:54:12.836Z,9.23
2018-12-31T11:55:12.858Z,9.29
2018-12-31T11:56:27.536Z,9.31
2018-12-31T11:57:12.888Z,9.36
2018-12-31T11:58:12.907Z,9.32
2018-12-31T11:59:12.922Z,9.21
2018-12-31T12:00:12.944Z,9.26
2018-12-31T12:01:27.621Z,9.28
2018-12-31T12:02:12.976Z,9.17
2018-12-31T12:03:12.995Z,9.13
2018-12-31T12:04:13.012Z,9.26
2018-12-31T12:05:13.027Z,9.26
2018-12-31T12:06:13.046Z,9.14
2018-12-31T12:07:13.072Z,9.21
2018-12-31T12:08:13.078Z,9.17
2018-12-31T12:09:13.104Z,9.35
2018-12-31T12:10:13.127Z,9.29
2018-12-31T12:11:13.143Z,9.13
2018-12-31T12:12:13.591Z,9.05
2018-12-31T12:13:13.185Z,9.1
2018-12-31T12:14:13.195Z,9.05
2018-12-31T12:15:13.220Z,9.14
2018-12-31T12:16:13.239Z,9.21
2018-12-31T12:17:27.915Z,9.2
2018-12-31T12:18:13.271Z,9.21
2018-12-31T12:19:13.281Z,9.26
2018-12-31T12:20:13.299Z,9.33
2018-12-31T12:21:13.851Z,9.38
2018-12-31T12:22:13.348Z,9.42
2018-12-31T12:23:13.348Z,9.38
2018-12-31T12:24:13.376Z,9.32
2018-12-31T12:25:13.390Z,9.35
2018-12-31T12:26:28.062Z,9.36
2018-12-31T12:27:13.429Z,9.35
2018-12-31T12:29:13.457Z,9.31
2018-12-31T12:30:13.794Z,9.28
2018-12-31T12:31:13.489Z,9.24
2018-12-31T12:32:13.514Z,9.33
2018-12-31T12:33:28.239Z,9.32
2018-12-31T12:34:13.555Z,9.32
2018-12-31T12:35:13.556Z,9.28
2018-12-31T12:36:13.573Z,9.38
2018-12-31T12:37:28.258Z,9.24
2018-12-31T12:38:13.798Z,9.32
2018-12-31T12:39:13.954Z,9.35
2018-12-31T12:40:28.309Z,9.42
2018-12-31T12:41:13.662Z,9.43
2018-12-31T12:43:13.698Z,9.57
2018-12-31T12:44:13.718Z,9.66
2018-12-31T12:45:13.739Z,9.68
2018-12-31T12:46:13.766Z,9.75
2018-12-31T12:47:14.062Z,9.71
2018-12-31T12:48:13.785Z,9.84
2018-12-31T12:49:28.467Z,9.76
2018-12-31T12:50:13.827Z,9.84
2018-12-31T12:51:13.848Z,9.83
2018-12-31T12:52:13.862Z,9.68
2018-12-31T12:53:15.136Z,9.71
2018-12-31T12:54:13.987Z,9.69
2018-12-31T12:55:13.922Z,9.69
2018-12-31T12:56:28.893Z,9.46
2018-12-31T12:57:13.945Z,9.54
2018-12-31T12:58:13.974Z,9.47
2018-12-31T12:59:13.983Z,9.42
2018-12-31T13:00:14.005Z,9.46
2018-12-31T13:01:14.020Z,9.56
2018-12-31T13:02:14.035Z,9.54
2018-12-31T13:04:28.731Z,9.48
2018-12-31T13:07:14.128Z,9.46
2018-12-31T13:08:28.806Z,9.42
2018-12-31T13:09:14.161Z,9.48
2018-12-31T13:10:14.178Z,9.39
2018-12-31T13:11:14.197Z,9.46
2018-12-31T13:12:28.875Z,9.42
2018-12-31T13:13:14.239Z,9.47
2018-12-31T13:14:14.938Z,9.47
2018-12-31T13:15:14.273Z,9.47
2018-12-31T13:16:14.297Z,9.51
2018-12-31T13:17:14.312Z,9.48
2018-12-31T13:18:14.323Z,9.46
2018-12-31T13:19:14.341Z,9.4
2018-12-31T13:21:14.379Z,9.48
2018-12-31T13:22:14.400Z,9.35
2018-12-31T13:23:15.086Z,9.43
2018-12-31T13:24:14.431Z,9.35
2018-12-31T13:25:14.446Z,9.31
2018-12-31T13:26:29.119Z,9.21
2018-12-31T13:27:14.484Z,9.23
2018-12-31T13:28:14.500Z,9.24
2018-12-31T13:29:14.512Z,9.21
2018-12-31T13:30:15.346Z,9.13
2018-12-31T13:31:14.552Z,9.17
2018-12-31T13:32:14.902Z,9.21
2018-12-31T13:33:14.587Z,9.17
2018-12-31T13:34:14.601Z,9.26
2018-12-31T13:35:14.615Z,9.21
2018-12-31T13:36:29.297Z,9.24
2018-12-31T13:37:14.661Z,9.13
2018-12-31T13:38:14.671Z,9.24
2018-12-31T13:39:14.690Z,9.26
2018-12-31T13:40:14.913Z,9.31
2018-12-31T13:41:14.717Z,9.36
2018-12-31T13:42:14.738Z,9.32
2018-12-31T13:43:14.752Z,9.26
2018-12-31T13:44:29.432Z,9.38
2018-12-31T13:45:14.607Z,9.32
2018-12-31T13:46:14.807Z,9.38
2018-12-31T13:47:14.833Z,9.31
2018-12-31T13:48:14.603Z,9.31
2018-12-31T13:49:16.683Z,9.29
2018-12-31T13:51:14.921Z,9.35
2018-12-31T13:52:29.578Z,9.39
2018-12-31T13:53:14.984Z,9.39
2018-12-31T13:54:14.706Z,9.26
2018-12-31T13:55:14.970Z,9.31
2018-12-31T13:56:14.987Z,9.38
2018-12-31T13:57:15.114Z,9.42
2018-12-31T13:58:15.453Z,9.35
2018-12-31T13:59:15.035Z,9.35
2018-12-31T14:00:15.121Z,9.42
2018-12-31T14:01:15.072Z,9.47
2018-12-31T14:02:15.087Z,9.43
2018-12-31T14:03:22.371Z,9.51
2018-12-31T14:04:15.123Z,9.47
2018-12-31T14:05:29.810Z,9.46
2018-12-31T14:06:15.177Z,9.4
2018-12-31T14:07:15.532Z,9.47
2018-12-31T14:08:29.854Z,9.38
2018-12-31T14:09:15.212Z,9.39
2018-12-31T14:10:15.228Z,9.31
2018-12-31T14:11:15.251Z,9.46
2018-12-31T14:12:15.264Z,9.38